createdAt,value
2023-03-21T00:00:27.000Z,0
2023-03-21T00:01:25.709Z,0
2023-03-21T00:02:59.906Z,0
2023-03-21T00:04:16.106Z,0
2023-03-21T00:05:32.000Z,0
2023-03-21T00:06:48.000Z,0
2023-03-21T00:08:04.704Z,0
2023-03-21T00:09:02.881Z,0
2023-03-21T00:10:36.000Z,0
2023-03-21T00:11:34.289Z,0
2023-03-21T00:13:08.000Z,0
2023-03-21T00:14:24.699Z,0
2023-03-21T00:15:22.875Z,0
2023-03-21T00:16:57.072Z,0
2023-03-21T00:17:55.265Z,0
2023-03-21T00:19:29.460Z,0
2023-03-21T00:20:45.655Z,0
2023-03-21T00:21:43.850Z,0
2023-03-21T00:23:18.056Z,0
2023-03-21T00:24:34.245Z,0
2023-03-21T00:25:50.450Z,0
2023-03-21T00:26:47.645Z,0
2023-03-21T00:28:21.841Z,0
2023-03-21T00:29:20.037Z,0
2023-03-21T00:30:54.254Z,0
2023-03-21T00:32:10.000Z,0
2023-03-21T00:33:26.000Z,0
2023-03-21T00:34:24.818Z,0
2023-03-21T00:35:59.000Z,0
2023-03-21T00:36:57.209Z,0
2023-03-21T00:38:13.404Z,0
2023-03-21T00:39:47.600Z,0
2023-03-21T00:41:03.816Z,0
2023-03-21T00:42:01.991Z,0
2023-03-21T00:43:36.000Z,0
2023-03-21T00:44:52.000Z,0
2023-03-21T00:46:08.588Z,0
2023-03-21T00:47:06.772Z,0
2023-03-21T00:48:21.984Z,0
2023-03-21T00:49:38.179Z,0
2023-03-21T00:51:12.000Z,0
2023-03-21T00:52:28.588Z,0
2023-03-21T00:53:44.785Z,0
2023-03-21T00:54:42.961Z,0
2023-03-21T00:56:17.156Z,0
2023-03-21T00:57:33.000Z,0
2023-03-21T00:58:49.000Z,0
2023-03-21T01:00:05.760Z,0
2023-03-21T01:01:21.941Z,0
2023-03-21T01:02:20.132Z,0
2023-03-21T01:03:54.331Z,0
2023-03-21T01:05:09.539Z,0
2023-03-21T01:06:25.000Z,0
2023-03-21T01:07:23.929Z,0
2023-03-21T01:08:58.000Z,0
2023-03-21T01:10:14.000Z,0
2023-03-21T01:11:53.000Z,0
2023-03-21T01:12:28.712Z,0
2023-03-21T01:14:02.000Z,0
2023-03-21T01:15:19.000Z,0
2023-03-21T01:16:35.308Z,0
2023-03-21T01:17:33.493Z,0
2023-03-21T01:18:49.689Z,0
2023-03-21T01:20:05.885Z,0
2023-03-21T01:21:40.080Z,0
2023-03-21T01:22:56.000Z,0
2023-03-21T01:24:12.471Z,0
2023-03-21T01:25:10.666Z,0
2023-03-21T01:26:26.983Z,0
2023-03-21T01:28:01.182Z,0
2023-03-21T01:29:16.403Z,0
2023-03-21T01:30:32.597Z,0
2023-03-21T01:31:48.000Z,0
2023-03-21T01:32:46.982Z,0
2023-03-21T01:34:21.186Z,0
2023-03-21T01:35:37.000Z,0
2023-03-21T01:36:53.000Z,0
2023-03-21T01:37:51.763Z,0
2023-03-21T01:39:07.959Z,0
2023-03-21T01:40:24.153Z,0
2023-03-21T01:41:40.350Z,0
2023-03-21T01:42:56.545Z,0
2023-03-21T01:44:30.000Z,0
2023-03-21T01:45:28.935Z,0
2023-03-21T01:47:26.000Z,0
2023-03-21T01:48:19.325Z,0
2023-03-21T01:49:17.520Z,0
2023-03-21T01:50:32.732Z,0
2023-03-21T01:52:06.927Z,0
2023-03-21T01:53:23.129Z,0
2023-03-21T01:54:39.327Z,0
2023-03-21T01:55:55.000Z,0
2023-03-21T01:57:11.714Z,0
2023-03-21T01:58:51.000Z,0
2023-03-21T01:59:44.099Z,0
2023-03-21T02:01:00.293Z,0
2023-03-21T02:01:58.489Z,0
2023-03-21T02:03:32.692Z,0
2023-03-21T02:04:48.890Z,0
2023-03-21T02:05:47.075Z,0
2023-03-21T02:07:20.000Z,0
2023-03-21T02:08:18.482Z,0
2023-03-21T02:09:52.000Z,0
2023-03-21T02:10:50.873Z,0
2023-03-21T02:12:25.078Z,0
2023-03-21T02:13:41.263Z,0
2023-03-21T02:14:57.000Z,0
2023-03-21T02:15:55.655Z,0
2023-03-21T02:17:11.850Z,0
2023-03-21T02:18:28.046Z,0
2023-03-21T02:20:02.000Z,0
2023-03-21T02:21:18.000Z,0
2023-03-21T02:22:34.639Z,0
2023-03-21T02:23:31.844Z,0
2023-03-21T02:25:06.045Z,0
2023-03-21T02:26:22.000Z,0
2023-03-21T02:28:01.000Z,0
2023-03-21T02:28:36.626Z,0
2023-03-21T02:30:10.000Z,0
2023-03-21T02:31:09.017Z,0
2023-03-21T02:32:43.217Z,0
2023-03-21T02:34:22.000Z,0
2023-03-21T02:35:15.602Z,0
2023-03-21T02:36:13.798Z,0
2023-03-21T02:37:47.994Z,0
2023-03-21T02:39:04.000Z,0
2023-03-21T02:40:20.390Z,0
2023-03-21T02:41:36.590Z,0
2023-03-21T02:42:34.775Z,0
2023-03-21T02:44:07.997Z,0
2023-03-21T02:45:24.000Z,0
2023-03-21T02:46:40.378Z,0
2023-03-21T02:47:56.584Z,0
2023-03-21T02:48:54.770Z,0
2023-03-21T02:50:28.986Z,0
2023-03-21T02:51:45.160Z,0
2023-03-21T02:53:01.000Z,0
2023-03-21T02:53:59.551Z,0
2023-03-21T02:55:33.768Z,0
2023-03-21T02:56:49.961Z,0
2023-03-21T02:57:48.138Z,0
2023-03-21T02:59:22.341Z,0
2023-03-21T03:00:37.000Z,0
2023-03-21T03:01:35.741Z,0
2023-03-21T03:03:09.937Z,0
2023-03-21T03:04:26.132Z,0
2023-03-21T03:05:42.333Z,0
2023-03-21T03:06:40.522Z,0
2023-03-21T03:08:14.000Z,0
2023-03-21T03:09:30.000Z,0
2023-03-21T03:10:47.000Z,0
2023-03-21T03:11:45.306Z,0
2023-03-21T03:13:01.502Z,0
2023-03-21T03:14:17.696Z,0
2023-03-21T03:15:51.000Z,0
2023-03-21T03:17:08.000Z,0
2023-03-21T03:18:24.283Z,0
2023-03-21T03:19:22.479Z,0
2023-03-21T03:20:55.701Z,0
2023-03-21T03:21:53.887Z,0
2023-03-21T03:23:28.000Z,0
2023-03-21T03:24:26.278Z,0
2023-03-21T03:26:00.488Z,0
2023-03-21T03:26:58.670Z,0
2023-03-21T03:28:32.876Z,0
2023-03-21T03:29:49.000Z,0
2023-03-21T03:31:05.278Z,0
2023-03-21T03:32:03.452Z,0
2023-03-21T03:33:37.000Z,0
2023-03-21T03:34:35.843Z,0
2023-03-21T03:36:10.057Z,0
2023-03-21T03:37:26.000Z,0
2023-03-21T03:38:42.000Z,0
2023-03-21T03:39:40.626Z,0
2023-03-21T03:41:14.839Z,0
2023-03-21T03:42:31.017Z,0
2023-03-21T03:43:47.000Z,0
2023-03-21T03:44:45.407Z,0
2023-03-21T03:46:19.000Z,0
2023-03-21T03:47:17.920Z,0
2023-03-21T03:48:52.000Z,0
2023-03-21T03:50:08.000Z,0
2023-03-21T03:51:24.000Z,0
2023-03-21T03:52:22.702Z,0
2023-03-21T03:53:56.000Z,0
2023-03-21T03:55:13.000Z,0
2023-03-21T03:56:29.308Z,0
2023-03-21T03:57:27.483Z,0
2023-03-21T03:59:01.000Z,0
2023-03-21T03:59:59.870Z,0
2023-03-21T04:01:34.063Z,0
2023-03-21T04:02:50.280Z,0
2023-03-21T04:03:47.467Z,0
2023-03-21T04:05:21.669Z,0
2023-03-21T04:06:37.875Z,0
2023-03-21T04:07:54.000Z,0
2023-03-21T04:09:10.000Z,0
2023-03-21T04:10:08.432Z,0
2023-03-21T04:11:42.645Z,0
2023-03-21T04:12:40.819Z,0
2023-03-21T04:14:15.022Z,0
2023-03-21T04:15:13.206Z,0
2023-03-21T04:16:47.000Z,0
2023-03-21T04:17:45.593Z,0
2023-03-21T04:19:19.786Z,0
2023-03-21T04:20:35.980Z,0
2023-03-21T04:22:15.000Z,0
2023-03-21T04:22:50.366Z,0
2023-03-21T04:24:23.576Z,0
2023-03-21T04:25:39.789Z,0
2023-03-21T04:26:55.981Z,0
2023-03-21T04:28:12.000Z,0
2023-03-21T04:29:10.350Z,0
2023-03-21T04:30:26.544Z,0
2023-03-21T04:32:00.737Z,0
2023-03-21T04:33:16.000Z,0
2023-03-21T04:34:15.123Z,0
2023-03-21T04:35:49.334Z,0
2023-03-21T04:37:05.000Z,0
2023-03-21T04:38:21.716Z,0
2023-03-21T04:39:37.897Z,0
2023-03-21T04:40:54.000Z,0
2023-03-21T04:42:10.297Z,0
2023-03-21T04:43:07.493Z,0
2023-03-21T04:45:04.000Z,0
2023-03-21T04:45:57.000Z,0
2023-03-21T04:47:14.000Z,0
2023-03-21T04:48:12.268Z,0
2023-03-21T04:49:46.446Z,0
2023-03-21T04:50:44.655Z,0
2023-03-21T04:52:18.000Z,0
2023-03-21T04:53:17.041Z,0
2023-03-21T04:54:51.000Z,0
2023-03-21T04:55:49.428Z,0
2023-03-21T04:57:23.000Z,0
2023-03-21T04:58:39.000Z,0
2023-03-21T04:59:38.008Z,0
2023-03-21T05:00:53.218Z,0
2023-03-21T05:02:27.000Z,0
2023-03-21T05:03:43.595Z,0
2023-03-21T05:06:15.979Z,0
2023-03-21T05:07:14.185Z,0
2023-03-21T05:08:48.375Z,0
2023-03-21T05:10:04.000Z,0
2023-03-21T05:11:20.000Z,0
2023-03-21T05:12:36.963Z,0
2023-03-21T05:13:35.152Z,0
2023-03-21T05:15:09.339Z,0
2023-03-21T05:16:07.539Z,0
2023-03-21T05:17:40.749Z,0
2023-03-21T05:18:56.944Z,0
2023-03-21T05:20:13.130Z,0
2023-03-21T05:21:11.329Z,0
2023-03-21T05:22:45.511Z,5
2023-03-21T05:24:01.000Z,5
2023-03-21T05:25:17.000Z,5
2023-03-21T05:26:16.101Z,5
2023-03-21T05:27:50.285Z,5
2023-03-21T05:28:48.488Z,5
2023-03-21T05:30:22.000Z,5
2023-03-21T05:31:38.875Z,5
2023-03-21T05:32:55.000Z,5
2023-03-21T05:34:11.000Z,11
2023-03-21T05:35:09.455Z,11
2023-03-21T05:36:43.000Z,11
2023-03-21T05:37:41.841Z,11
2023-03-21T05:39:15.047Z,11
2023-03-21T05:40:31.244Z,11
2023-03-21T05:41:29.437Z,11
2023-03-21T05:43:03.623Z,11
2023-03-21T05:44:19.000Z,11
2023-03-21T05:45:36.000Z,11
2023-03-21T05:46:34.210Z,16
2023-03-21T05:48:08.000Z,16
2023-03-21T05:49:24.596Z,16
2023-03-21T05:50:40.778Z,22
2023-03-21T05:51:38.983Z,22
2023-03-21T05:53:13.291Z,22
2023-03-21T05:54:11.496Z,16
2023-03-21T05:55:45.000Z,16
2023-03-21T05:57:01.000Z,16
2023-03-21T05:58:18.071Z,16
2023-03-21T05:59:34.267Z,16
2023-03-21T06:00:50.000Z,16
2023-03-21T06:02:06.000Z,16
2023-03-21T06:03:22.000Z,22
2023-03-21T06:04:21.043Z,22
2023-03-21T06:05:55.000Z,22
2023-03-21T06:06:53.429Z,22
2023-03-21T06:08:09.622Z,22
2023-03-21T06:09:24.832Z,16
2023-03-21T06:10:59.000Z,16
2023-03-21T06:12:15.203Z,16
2023-03-21T06:13:31.000Z,22
2023-03-21T06:14:47.000Z,22
2023-03-21T06:15:45.798Z,28
2023-03-21T06:17:01.991Z,33
2023-03-21T06:18:36.000Z,33
2023-03-21T06:20:15.000Z,33
2023-03-21T06:21:08.000Z,33
2023-03-21T06:22:24.000Z,33
2023-03-21T06:24:04.000Z,28
2023-03-21T06:24:57.142Z,28
2023-03-21T06:26:12.362Z,28
2023-03-21T06:27:28.553Z,33
2023-03-21T06:28:44.744Z,33
2023-03-21T06:29:42.940Z,33
2023-03-21T06:31:17.133Z,33
2023-03-21T06:32:33.000Z,33
2023-03-21T06:33:49.000Z,33
2023-03-21T06:34:47.713Z,28
2023-03-21T06:36:21.902Z,28
2023-03-21T06:37:38.000Z,28
2023-03-21T06:38:54.000Z,33
2023-03-21T06:40:10.487Z,33
2023-03-21T06:41:26.680Z,33
2023-03-21T06:42:24.873Z,33
2023-03-21T06:43:58.000Z,33
2023-03-21T06:44:56.276Z,33
2023-03-21T06:46:30.000Z,33
2023-03-21T06:47:46.663Z,33
2023-03-21T06:49:02.000Z,33
2023-03-21T06:50:01.049Z,33
2023-03-21T06:51:17.242Z,33
2023-03-21T06:52:51.436Z,33
2023-03-21T06:54:07.629Z,33
2023-03-21T06:55:23.813Z,33
2023-03-21T06:56:40.000Z,33
2023-03-21T06:57:56.207Z,39
2023-03-21T06:59:12.398Z,39
2023-03-21T07:00:28.583Z,39
2023-03-21T07:01:44.910Z,39
2023-03-21T07:03:24.000Z,33
2023-03-21T07:04:17.000Z,39
2023-03-21T07:05:33.490Z,39
2023-03-21T07:06:49.000Z,33
2023-03-21T07:07:47.876Z,33
2023-03-21T07:09:22.071Z,33
2023-03-21T07:10:20.264Z,39
2023-03-21T07:11:54.000Z,39
2023-03-21T07:13:10.647Z,45
2023-03-21T07:14:26.000Z,45
2023-03-21T07:15:25.037Z,50
2023-03-21T07:16:59.000Z,50
2023-03-21T07:18:15.000Z,50
2023-03-21T07:19:31.000Z,56
2023-03-21T07:20:47.000Z,50
2023-03-21T07:22:03.000Z,45
2023-03-21T07:23:19.000Z,45
2023-03-21T07:24:35.000Z,45
2023-03-21T07:25:51.000Z,39
2023-03-21T07:27:07.000Z,45
2023-03-21T07:28:23.000Z,45
2023-03-21T07:29:40.181Z,45
2023-03-21T07:30:56.000Z,45
2023-03-21T07:31:54.567Z,45
2023-03-21T07:33:28.751Z,45
2023-03-21T07:34:44.000Z,45
2023-03-21T07:35:43.147Z,50
2023-03-21T07:37:17.335Z,56
2023-03-21T07:38:33.533Z,50
2023-03-21T07:39:48.000Z,50
2023-03-21T07:40:46.936Z,50
2023-03-21T07:42:21.130Z,50
2023-03-21T07:43:37.000Z,56
2023-03-21T07:44:53.519Z,50
2023-03-21T07:46:09.714Z,56
2023-03-21T07:47:25.903Z,50
2023-03-21T07:48:42.094Z,56
2023-03-21T07:49:58.000Z,56
2023-03-21T07:51:14.000Z,56
2023-03-21T07:52:30.000Z,56
2023-03-21T07:53:46.863Z,56
2023-03-21T07:54:45.063Z,56
2023-03-21T07:56:18.272Z,56
2023-03-21T07:57:34.466Z,50
2023-03-21T07:58:50.652Z,50
2023-03-21T08:00:06.849Z,50
2023-03-21T08:01:05.046Z,56
2023-03-21T08:02:39.000Z,56
2023-03-21T08:03:55.432Z,56
2023-03-21T08:05:11.625Z,56
2023-03-21T08:06:27.805Z,56
2023-03-21T08:07:44.000Z,61
2023-03-21T08:09:00.000Z,67
2023-03-21T08:10:16.397Z,73
2023-03-21T08:11:32.000Z,73
2023-03-21T08:12:48.000Z,73
2023-03-21T08:13:46.977Z,73
2023-03-21T08:15:20.000Z,73
2023-03-21T08:16:18.379Z,78
2023-03-21T08:17:52.578Z,78
2023-03-21T08:19:08.000Z,78
2023-03-21T08:20:24.958Z,73
2023-03-21T08:21:41.152Z,67
2023-03-21T08:22:57.333Z,67
2023-03-21T08:24:13.527Z,67
2023-03-21T08:25:29.731Z,73
2023-03-21T08:26:27.925Z,73
2023-03-21T08:28:02.000Z,73
2023-03-21T08:29:00.311Z,78
2023-03-21T08:30:34.000Z,78
2023-03-21T08:31:32.697Z,78
2023-03-21T08:32:47.907Z,84
2023-03-21T08:34:22.000Z,84
2023-03-21T08:35:38.000Z,90
2023-03-21T08:36:54.473Z,84
2023-03-21T08:38:33.000Z,84
2023-03-21T08:39:08.871Z,84
2023-03-21T08:40:43.065Z,95
2023-03-21T08:41:41.257Z,95
2023-03-21T08:43:15.450Z,101
2023-03-21T08:44:31.000Z,106
2023-03-21T08:45:29.836Z,101
2023-03-21T08:47:04.000Z,95
2023-03-21T08:48:20.000Z,90
2023-03-21T08:49:18.415Z,90
2023-03-21T08:50:51.000Z,90
2023-03-21T08:51:49.817Z,84
2023-03-21T08:53:24.008Z,78
2023-03-21T08:54:22.203Z,84
2023-03-21T08:55:56.000Z,84
2023-03-21T08:57:12.579Z,78
2023-03-21T08:58:28.000Z,78
2023-03-21T09:01:24.000Z,78
2023-03-21T09:02:17.366Z,78
2023-03-21T09:03:33.000Z,78
2023-03-21T09:04:31.747Z,84
2023-03-21T09:06:05.000Z,84
2023-03-21T09:07:22.137Z,84
2023-03-21T09:08:37.342Z,78
2023-03-21T09:09:53.530Z,78
2023-03-21T09:11:09.729Z,78
2023-03-21T09:12:25.922Z,84
2023-03-21T09:13:42.000Z,90
2023-03-21T09:14:58.307Z,95
2023-03-21T09:16:14.500Z,95
2023-03-21T09:17:30.685Z,95
2023-03-21T09:18:46.000Z,95
2023-03-21T09:20:03.070Z,90
2023-03-21T09:21:19.000Z,90
2023-03-21T09:22:35.454Z,90
2023-03-21T09:23:51.000Z,90
2023-03-21T09:25:07.000Z,90
2023-03-21T09:26:24.044Z,95
2023-03-21T09:27:40.229Z,95
2023-03-21T09:28:55.000Z,101
2023-03-21T09:29:53.640Z,101
2023-03-21T09:31:27.000Z,101
2023-03-21T09:32:44.032Z,101
2023-03-21T09:34:00.226Z,95
2023-03-21T09:34:58.412Z,95
2023-03-21T09:36:32.000Z,95
2023-03-21T09:37:48.000Z,101
2023-03-21T09:39:04.987Z,106
2023-03-21T09:40:03.184Z,106
2023-03-21T09:41:37.000Z,101
2023-03-21T09:42:53.577Z,101
2023-03-21T09:44:09.764Z,95
2023-03-21T09:45:25.949Z,95
2023-03-21T09:46:42.000Z,90
2023-03-21T09:47:40.343Z,90
2023-03-21T09:49:13.553Z,84
2023-03-21T09:50:29.746Z,84
2023-03-21T09:51:45.000Z,78
2023-03-21T09:53:02.121Z,78
2023-03-21T09:54:18.319Z,78
2023-03-21T09:55:16.518Z,84
2023-03-21T09:56:32.710Z,84
2023-03-21T09:58:06.000Z,90
2023-03-21T09:59:23.096Z,95
2023-03-21T10:00:21.290Z,101
2023-03-21T10:02:18.000Z,101
2023-03-21T10:03:11.000Z,112
2023-03-21T10:04:27.861Z,118
2023-03-21T10:05:43.067Z,118
2023-03-21T10:06:59.000Z,123
2023-03-21T10:07:57.464Z,118
2023-03-21T10:09:30.678Z,112
2023-03-21T10:10:28.872Z,112
2023-03-21T10:12:03.064Z,118
2023-03-21T10:13:01.257Z,123
2023-03-21T10:14:35.000Z,129
2023-03-21T10:15:51.643Z,123
2023-03-21T10:17:07.000Z,123
2023-03-21T10:18:24.019Z,129
2023-03-21T10:19:40.000Z,129
2023-03-21T10:20:56.416Z,129
2023-03-21T10:22:12.000Z,118
2023-03-21T10:23:10.801Z,112
2023-03-21T10:24:45.000Z,118
2023-03-21T10:26:01.187Z,123
2023-03-21T10:27:17.377Z,123
2023-03-21T10:28:32.000Z,129
2023-03-21T10:29:48.000Z,135
2023-03-21T10:31:04.964Z,140
2023-03-21T10:32:21.167Z,151
2023-03-21T10:33:37.351Z,151
2023-03-21T10:34:53.553Z,151
2023-03-21T10:36:09.000Z,151
2023-03-21T10:37:25.000Z,146
2023-03-21T10:38:42.122Z,140
2023-03-21T10:39:58.325Z,151
2023-03-21T10:41:14.000Z,157
2023-03-21T10:42:53.000Z,168
2023-03-21T10:43:46.905Z,174
2023-03-21T10:45:02.000Z,163
2023-03-21T10:46:18.306Z,135
2023-03-21T10:47:34.000Z,123
2023-03-21T10:48:32.693Z,123
2023-03-21T10:50:06.000Z,118
2023-03-21T10:51:23.000Z,118
2023-03-21T10:52:39.000Z,118
2023-03-21T10:53:55.000Z,112
2023-03-21T10:54:53.657Z,106
2023-03-21T10:56:27.853Z,106
2023-03-21T10:57:44.043Z,106
2023-03-21T10:59:00.236Z,106
2023-03-21T11:00:16.000Z,101
2023-03-21T11:01:14.622Z,101
2023-03-21T11:02:48.000Z,101
2023-03-21T11:03:47.008Z,101
2023-03-21T11:05:21.201Z,101
2023-03-21T11:06:37.000Z,101
2023-03-21T11:07:53.587Z,101
2023-03-21T11:08:51.780Z,101
2023-03-21T11:10:24.985Z,101
2023-03-21T11:11:41.176Z,101
2023-03-21T11:12:39.375Z,106
2023-03-21T11:14:13.000Z,112
2023-03-21T11:15:29.761Z,112
2023-03-21T11:16:45.000Z,112
2023-03-21T11:18:02.000Z,112
2023-03-21T11:19:18.000Z,112
2023-03-21T11:20:34.000Z,112
2023-03-21T11:21:50.000Z,112
2023-03-21T11:23:06.000Z,112
2023-03-21T11:24:05.113Z,106
2023-03-21T11:25:21.305Z,101
2023-03-21T11:26:55.492Z,95
2023-03-21T11:28:11.000Z,95
2023-03-21T11:29:09.885Z,95
2023-03-21T11:30:44.000Z,95
2023-03-21T11:32:00.272Z,95
2023-03-21T11:33:16.000Z,95
2023-03-21T11:34:32.651Z,101
2023-03-21T11:35:47.869Z,106
2023-03-21T11:36:46.060Z,112
2023-03-21T11:38:20.000Z,118
2023-03-21T11:39:36.000Z,129
2023-03-21T11:40:52.000Z,129
2023-03-21T11:42:08.000Z,135
2023-03-21T11:43:48.000Z,140
2023-03-21T11:44:41.000Z,146
2023-03-21T11:45:57.411Z,146
2023-03-21T11:47:13.595Z,146
2023-03-21T11:48:29.794Z,146
2023-03-21T11:49:45.985Z,140
2023-03-21T11:51:02.183Z,140
2023-03-21T11:52:00.377Z,146
2023-03-21T11:53:33.000Z,146
2023-03-21T11:54:31.779Z,151
2023-03-21T11:56:05.972Z,151
2023-03-21T11:57:22.000Z,151
2023-03-21T11:58:38.000Z,151
2023-03-21T11:59:36.552Z,157
2023-03-21T12:01:10.000Z,151
2023-03-21T12:02:08.938Z,151
2023-03-21T12:03:43.132Z,151
2023-03-21T12:04:59.326Z,151
2023-03-21T12:06:15.518Z,151
2023-03-21T12:07:13.711Z,151
2023-03-21T12:08:47.000Z,151
2023-03-21T12:10:04.000Z,146
2023-03-21T12:11:20.288Z,140
2023-03-21T12:12:18.485Z,135
2023-03-21T12:13:52.672Z,129
2023-03-21T12:14:49.888Z,123
2023-03-21T12:16:24.000Z,123
2023-03-21T12:17:22.275Z,129
2023-03-21T12:18:56.476Z,129
2023-03-21T12:19:54.661Z,135
2023-03-21T12:21:10.854Z,140
2023-03-21T12:22:45.000Z,140
2023-03-21T12:24:01.237Z,140
2023-03-21T12:24:59.434Z,135
2023-03-21T12:26:33.000Z,123
2023-03-21T12:27:49.812Z,129
2023-03-21T12:28:48.014Z,129
2023-03-21T12:30:22.202Z,140
2023-03-21T12:31:37.000Z,151
2023-03-21T12:32:35.610Z,157
2023-03-21T12:33:51.803Z,163
2023-03-21T12:35:25.997Z,163
2023-03-21T12:37:05.000Z,157
2023-03-21T12:37:40.384Z,157
2023-03-21T12:39:14.578Z,157
2023-03-21T12:40:30.000Z,146
2023-03-21T12:41:46.960Z,135
2023-03-21T12:43:03.165Z,123
2023-03-21T12:44:19.351Z,118
2023-03-21T12:45:35.549Z,106
2023-03-21T12:46:51.000Z,101
2023-03-21T12:48:07.000Z,106
2023-03-21T12:49:24.126Z,106
2023-03-21T12:50:40.326Z,101
2023-03-21T12:51:56.506Z,101
2023-03-21T12:52:54.706Z,101
2023-03-21T12:54:27.916Z,101
2023-03-21T12:55:44.109Z,101
2023-03-21T12:57:00.300Z,95
2023-03-21T12:57:58.496Z,95
2023-03-21T12:59:32.696Z,95
2023-03-21T13:00:48.000Z,95
2023-03-21T13:02:05.000Z,95
2023-03-21T13:03:03.269Z,95
2023-03-21T13:04:37.462Z,95
2023-03-21T13:05:35.656Z,95
2023-03-21T13:07:09.000Z,95
2023-03-21T13:08:26.041Z,95
2023-03-21T13:09:42.000Z,90
2023-03-21T13:10:40.429Z,90
2023-03-21T13:12:14.623Z,90
2023-03-21T13:13:30.000Z,90
2023-03-21T13:14:47.000Z,78
2023-03-21T13:16:03.196Z,73
2023-03-21T13:17:18.413Z,73
2023-03-21T13:18:16.606Z,73
2023-03-21T13:19:32.800Z,73
2023-03-21T13:20:48.993Z,73
2023-03-21T13:22:23.182Z,67
2023-03-21T13:24:02.000Z,67
2023-03-21T13:24:55.000Z,67
2023-03-21T13:26:11.000Z,67
2023-03-21T13:27:27.000Z,67
2023-03-21T13:28:44.145Z,61
2023-03-21T13:30:00.000Z,61
2023-03-21T13:30:58.542Z,61
2023-03-21T13:32:32.000Z,67
2023-03-21T13:33:48.934Z,67
2023-03-21T13:35:04.000Z,61
2023-03-21T13:36:20.336Z,61
2023-03-21T13:37:36.000Z,67
2023-03-21T13:38:52.000Z,67
2023-03-21T13:40:08.000Z,67
2023-03-21T13:41:25.000Z,67
2023-03-21T13:43:04.000Z,67
2023-03-21T13:43:57.000Z,73
2023-03-21T13:45:36.000Z,73
2023-03-21T13:46:29.894Z,73
2023-03-21T13:47:46.119Z,78
2023-03-21T13:48:44.284Z,78
2023-03-21T13:50:18.497Z,78
2023-03-21T13:51:34.674Z,78
2023-03-21T13:52:50.000Z,78
2023-03-21T13:54:06.102Z,78
2023-03-21T13:55:22.287Z,73
2023-03-21T13:56:20.467Z,73
2023-03-21T13:57:54.000Z,78
2023-03-21T13:59:10.889Z,78
2023-03-21T14:00:27.078Z,78
2023-03-21T14:01:25.248Z,78
2023-03-21T14:02:59.000Z,73
2023-03-21T14:04:15.000Z,73
2023-03-21T14:05:13.834Z,73
2023-03-21T14:07:11.000Z,73
2023-03-21T14:08:27.000Z,73
2023-03-21T14:09:20.439Z,78
2023-03-21T14:10:36.000Z,84
2023-03-21T14:11:34.810Z,84
2023-03-21T14:13:09.022Z,84
2023-03-21T14:14:07.201Z,78
2023-03-21T14:15:41.538Z,73
2023-03-21T14:16:57.713Z,73
2023-03-21T14:18:13.908Z,73
2023-03-21T14:19:30.000Z,67
2023-03-21T14:20:46.000Z,67
2023-03-21T14:21:44.494Z,67
2023-03-21T14:23:41.000Z,73
2023-03-21T14:24:16.884Z,73
2023-03-21T14:25:51.000Z,73
2023-03-21T14:26:49.402Z,73
2023-03-21T14:28:23.000Z,73
2023-03-21T14:29:39.793Z,73
2023-03-21T14:30:56.019Z,73
2023-03-21T14:31:54.183Z,73
2023-03-21T14:33:28.000Z,73
2023-03-21T14:34:26.574Z,78
2023-03-21T14:36:00.000Z,84
2023-03-21T14:37:16.980Z,90
2023-03-21T14:38:33.188Z,95
2023-03-21T14:39:31.355Z,95
2023-03-21T14:41:05.551Z,95
2023-03-21T14:42:21.000Z,101
2023-03-21T14:43:37.000Z,101
2023-03-21T14:44:54.162Z,101
2023-03-21T14:46:10.453Z,95
2023-03-21T14:47:26.668Z,95
2023-03-21T14:48:42.844Z,90
2023-03-21T14:49:59.039Z,90
2023-03-21T14:50:57.235Z,90
2023-03-21T14:52:31.000Z,90
2023-03-21T14:53:47.646Z,90
2023-03-21T14:55:03.000Z,84
2023-03-21T14:56:20.016Z,90
2023-03-21T14:57:36.000Z,84
2023-03-21T14:58:52.000Z,84
2023-03-21T14:59:50.602Z,84
2023-03-21T15:01:06.798Z,78
2023-03-21T15:02:40.040Z,78
2023-03-21T15:03:56.000Z,84
2023-03-21T15:04:54.399Z,78
2023-03-21T15:06:28.000Z,73
2023-03-21T15:07:44.000Z,73
2023-03-21T15:09:01.005Z,67
2023-03-21T15:10:17.195Z,61
2023-03-21T15:11:33.000Z,61
2023-03-21T15:12:31.571Z,56
2023-03-21T15:14:05.783Z,56
2023-03-21T15:15:21.000Z,61
2023-03-21T15:16:20.158Z,61
2023-03-21T15:17:54.000Z,61
2023-03-21T15:19:10.548Z,61
2023-03-21T15:20:26.000Z,56
2023-03-21T15:21:42.000Z,56
2023-03-21T15:22:59.162Z,56
2023-03-21T15:23:57.451Z,56
2023-03-21T15:25:13.646Z,56
2023-03-21T15:26:47.000Z,56
2023-03-21T15:28:04.054Z,61
2023-03-21T15:29:20.263Z,61
2023-03-21T15:30:36.000Z,56
2023-03-21T15:31:34.623Z,56
2023-03-21T15:33:08.000Z,50
2023-03-21T15:34:25.013Z,50
2023-03-21T15:35:41.000Z,45
2023-03-21T15:36:57.426Z,45
2023-03-21T15:37:55.598Z,45
2023-03-21T15:39:29.000Z,39
2023-03-21T15:40:45.000Z,39
2023-03-21T15:42:02.184Z,33
2023-03-21T15:43:00.379Z,33
2023-03-21T15:44:34.000Z,33
2023-03-21T15:45:50.000Z,28
2023-03-21T15:47:07.121Z,28
2023-03-21T15:48:23.000Z,22
2023-03-21T15:49:39.477Z,22
2023-03-21T15:51:18.000Z,22
2023-03-21T15:51:53.868Z,22
2023-03-21T15:53:28.062Z,22
2023-03-21T15:54:44.275Z,16
2023-03-21T15:56:00.000Z,16
2023-03-21T15:57:16.000Z,16
2023-03-21T15:58:32.000Z,16
2023-03-21T15:59:49.000Z,16
2023-03-21T16:01:05.255Z,22
2023-03-21T16:02:21.576Z,22
2023-03-21T16:03:19.746Z,22
2023-03-21T16:04:53.942Z,16
2023-03-21T16:06:10.000Z,16
2023-03-21T16:07:26.350Z,16
2023-03-21T16:08:24.527Z,16
2023-03-21T16:09:58.739Z,16
2023-03-21T16:11:14.000Z,16
2023-03-21T16:12:31.000Z,16
2023-03-21T16:13:47.340Z,11
2023-03-21T16:15:03.503Z,11
2023-03-21T16:16:01.698Z,11
2023-03-21T16:17:59.000Z,11
2023-03-21T16:18:51.000Z,11
2023-03-21T16:20:07.000Z,11
2023-03-21T16:21:05.492Z,11
2023-03-21T16:22:39.000Z,11
2023-03-21T16:23:55.000Z,11
2023-03-21T16:25:12.078Z,11
2023-03-21T16:26:10.272Z,11
2023-03-21T16:27:44.468Z,11
2023-03-21T16:28:42.662Z,11
2023-03-21T16:30:16.872Z,11
2023-03-21T16:31:33.070Z,11
2023-03-21T16:32:49.000Z,5
2023-03-21T16:33:47.443Z,5
2023-03-21T16:35:21.000Z,5
2023-03-21T16:36:37.000Z,5
2023-03-21T16:37:54.029Z,5
2023-03-21T16:38:52.223Z,5
2023-03-21T16:40:26.445Z,5
2023-03-21T16:41:23.630Z,5
2023-03-21T16:42:57.848Z,5
2023-03-21T16:43:56.020Z,5
2023-03-21T16:45:30.000Z,5
2023-03-21T16:46:46.429Z,5
2023-03-21T16:47:44.606Z,5
2023-03-21T16:50:35.000Z,5
2023-03-21T16:51:51.212Z,5
2023-03-21T16:53:07.000Z,5
2023-03-21T16:54:23.597Z,5
2023-03-21T16:55:39.776Z,5
2023-03-21T16:56:37.971Z,5
2023-03-21T16:58:12.000Z,5
2023-03-21T16:59:28.509Z,5
2023-03-21T17:00:44.677Z,5
2023-03-21T17:02:00.000Z,0
2023-03-21T17:03:17.000Z,0
2023-03-21T17:04:33.294Z,0
2023-03-21T17:05:49.000Z,0
2023-03-21T17:07:05.669Z,0
2023-03-21T17:08:21.865Z,0
2023-03-21T17:09:20.043Z,0
2023-03-21T17:10:54.000Z,0
2023-03-21T17:12:10.000Z,0
2023-03-21T17:13:26.628Z,0
2023-03-21T17:14:42.823Z,0
2023-03-21T17:15:59.037Z,0
2023-03-21T17:16:57.213Z,0
2023-03-21T17:18:31.000Z,0
2023-03-21T17:19:47.618Z,0
2023-03-21T17:21:03.000Z,0
2023-03-21T17:22:20.147Z,0
2023-03-21T17:23:36.000Z,0
2023-03-21T17:24:52.523Z,0
2023-03-21T17:26:08.715Z,0
2023-03-21T17:27:24.894Z,0
2023-03-21T17:28:41.000Z,0
2023-03-21T17:29:39.284Z,0
2023-03-21T17:31:13.000Z,0
2023-03-21T17:32:11.674Z,0
2023-03-21T17:33:45.894Z,0
2023-03-21T17:35:02.000Z,0
2023-03-21T17:36:18.000Z,0
2023-03-21T17:37:16.455Z,0
2023-03-21T17:38:50.801Z,0
2023-03-21T17:41:23.161Z,0
2023-03-21T17:42:21.356Z,0
2023-03-21T17:43:55.000Z,0
2023-03-21T17:44:53.746Z,0
2023-03-21T17:46:27.000Z,0
2023-03-21T17:47:44.000Z,0
2023-03-21T17:49:00.366Z,0
2023-03-21T17:50:16.526Z,0
2023-03-21T17:51:32.722Z,0
2023-03-21T17:52:48.000Z,0
2023-03-21T17:54:05.000Z,0
2023-03-21T17:55:44.000Z,0
2023-03-21T17:56:37.535Z,0
2023-03-21T17:57:34.713Z,0
2023-03-21T17:59:08.000Z,0
2023-03-21T18:00:07.103Z,0
2023-03-21T18:01:41.000Z,0
2023-03-21T18:02:39.494Z,0
2023-03-21T18:04:13.000Z,0
2023-03-21T18:05:29.000Z,0
2023-03-21T18:06:46.080Z,0
2023-03-21T18:08:02.301Z,0
2023-03-21T18:09:18.505Z,0
2023-03-21T18:10:16.665Z,0
2023-03-21T18:11:50.891Z,0
2023-03-21T18:13:07.056Z,0
2023-03-21T18:14:23.000Z,0
2023-03-21T18:15:39.000Z,0
2023-03-21T18:17:18.000Z,0
2023-03-21T18:18:11.000Z,0
2023-03-21T18:19:28.000Z,0